createdAt,value
2023-01-12T00:02:14.814Z,21.8
2023-01-12T00:07:06.343Z,21.8
2023-01-12T00:11:56.857Z,21.8
2023-01-12T00:17:04.204Z,21.8
2023-01-12T00:22:26.550Z,21.9
2023-01-12T00:27:18.139Z,21.8
2023-01-12T00:32:40.304Z,21.8
2023-01-12T00:38:03.255Z,21.9
2023-01-12T00:43:30.546Z,21.9
2023-01-12T00:48:52.899Z,21.9
2023-01-12T00:54:16.177Z,21.9
2023-01-12T00:59:38.252Z,21.9
2023-01-12T01:05:01.553Z,21.9
2023-01-12T01:09:53.154Z,22
2023-01-12T01:14:45.049Z,22
2023-01-12T01:19:52.353Z,22
2023-01-12T01:24:59.408Z,22
2023-01-12T01:29:50.739Z,22.1
2023-01-12T01:40:03.698Z,22.1
2023-01-12T01:45:25.948Z,22.1
2023-01-12T01:50:48.015Z,22.1
2023-01-12T01:55:55.392Z,22.1
2023-01-12T02:01:17.480Z,22.1
2023-01-12T02:06:28.980Z,22.1
2023-01-12T02:11:20.774Z,22.1
2023-01-12T02:16:43.430Z,22.2
2023-01-12T02:22:04.881Z,22.2
2023-01-12T02:27:27.448Z,22.2
2023-01-12T02:32:35.015Z,22.2
2023-01-12T02:37:56.772Z,22.2
2023-01-12T02:43:22.177Z,22.3
2023-01-12T02:48:43.720Z,22.3
2023-01-12T02:54:05.321Z,22.3
2023-01-12T02:59:28.162Z,22.3
2023-01-12T03:04:50.973Z,22.3
2023-01-12T03:10:13.133Z,22.3
2023-01-12T03:15:20.097Z,22.3
2023-01-12T03:20:42.448Z,22.3
2023-01-12T03:25:49.342Z,22.3
2023-01-12T03:31:11.873Z,22.3
2023-01-12T03:36:34.325Z,22.3
2023-01-12T03:41:57.137Z,22.3
2023-01-12T03:47:20.284Z,22.3
2023-01-12T03:52:42.036Z,22.3
2023-01-12T03:58:03.557Z,22.4
2023-01-12T04:03:26.907Z,22.3
2023-01-12T04:08:49.697Z,22.4
2023-01-12T04:13:40.708Z,22.4
2023-01-12T04:19:03.898Z,22.4
2023-01-12T04:24:26.216Z,22.4
2023-01-12T04:29:16.880Z,22.4
2023-01-12T04:34:39.775Z,22.4
2023-01-12T04:40:02.105Z,22.4
2023-01-12T04:45:26.829Z,22.4
2023-01-12T04:50:49.235Z,22.4
2023-01-12T04:56:12.094Z,22.4
2023-01-12T05:01:34.638Z,22.4
2023-01-12T05:07:00.340Z,22.4
2023-01-12T05:12:22.160Z,22.4
2023-01-12T05:17:44.593Z,22.4
2023-01-12T05:23:10.700Z,22.5
2023-01-12T05:28:17.212Z,22.4
2023-01-12T05:33:40.988Z,22.4
2023-01-12T05:38:48.695Z,22.4
2023-01-12T05:43:55.571Z,22.4
2023-01-12T05:49:17.142Z,22.4
2023-01-12T05:54:39.519Z,22.4
2023-01-12T05:59:46.800Z,22.4
2023-01-12T06:05:10.245Z,22.4
2023-01-12T06:10:03.802Z,22.4
2023-01-12T06:15:10.690Z,22.4
2023-01-12T06:20:33.522Z,22.5
2023-01-12T06:25:56.428Z,22.5
2023-01-12T06:31:18.613Z,22.4
2023-01-12T06:36:48.834Z,22.3
2023-01-12T06:42:11.895Z,22.2
2023-01-12T06:47:34.741Z,22.2
2023-01-12T06:52:56.999Z,22.3
2023-01-12T06:58:19.338Z,22.3
2023-01-12T07:03:42.371Z,22.4
2023-01-12T07:09:04.949Z,22.4
2023-01-12T07:14:30.745Z,22.5
2023-01-12T07:19:53.415Z,22.4
2023-01-12T07:25:18.590Z,22.4
2023-01-12T07:30:41.576Z,22.4
2023-01-12T07:36:03.632Z,22.4
2023-01-12T07:41:28.633Z,22.4
2023-01-12T07:46:51.730Z,22.4
2023-01-12T07:52:15.997Z,22.4
2023-01-12T07:57:38.497Z,22.4
2023-01-12T08:03:04.584Z,22.4
2023-01-12T08:08:26.920Z,22.4
2023-01-12T08:13:49.817Z,22.4
2023-01-12T08:19:12.474Z,22.4
2023-01-12T08:24:36.564Z,22.4
2023-01-12T08:29:59.242Z,22.4
2023-01-12T08:35:39.833Z,22.4
2023-01-12T08:41:03.303Z,22.4
2023-01-12T08:46:27.541Z,22.4
2023-01-12T08:51:54.021Z,22.4
2023-01-12T08:57:16.580Z,22.4
2023-01-12T09:02:25.119Z,22.4
2023-01-12T09:07:32.610Z,22.4
2023-01-12T09:12:55.532Z,22.4
2023-01-12T09:18:32.876Z,22.4
2023-01-12T09:23:56.272Z,22.4
2023-01-12T09:29:21.218Z,22.4
2023-01-12T09:34:53.952Z,22.4
2023-01-12T09:40:23.416Z,22.4
2023-01-12T09:45:30.705Z,22.4
2023-01-12T09:51:03.271Z,22.4
2023-01-12T09:56:26.201Z,22.4
2023-01-12T10:02:08.451Z,22.4
2023-01-12T10:07:42.256Z,22.4
2023-01-12T10:13:05.165Z,22.4
2023-01-12T10:18:28.147Z,22.4
2023-01-12T10:23:54.561Z,22.4
2023-01-12T10:29:17.577Z,22.4
2023-01-12T10:34:44.216Z,22.3
2023-01-12T10:40:06.572Z,22.3
2023-01-12T10:45:39.886Z,22.3
2023-01-12T10:51:02.503Z,22.3
2023-01-12T10:56:28.334Z,22.4
2023-01-12T11:01:51.800Z,22.3
2023-01-12T11:07:15.607Z,22.3
2023-01-12T11:12:40.133Z,22.3
2023-01-12T11:18:10.378Z,22.3
2023-01-12T11:23:33.421Z,22.3
2023-01-12T11:28:55.613Z,22.3
2023-01-12T11:34:03.948Z,22.3
2023-01-12T11:39:11.375Z,22.3
2023-01-12T11:44:18.140Z,22.3
2023-01-12T11:49:44.550Z,22.3
2023-01-12T11:55:09.264Z,22.3
2023-01-12T12:00:35.522Z,22.3
2023-01-12T12:05:59.025Z,22.3
2023-01-12T12:11:21.854Z,22.3
2023-01-12T12:16:48.156Z,22.3
2023-01-12T12:21:57.801Z,22.3
2023-01-12T12:27:21.691Z,22.3
2023-01-12T12:32:44.454Z,22.3
2023-01-12T12:37:51.734Z,22.3
2023-01-12T12:43:15.004Z,22.3
2023-01-12T12:48:37.859Z,22.3
2023-01-12T12:54:03.329Z,22.3
2023-01-12T12:59:26.583Z,22.3
2023-01-12T13:04:19.114Z,22.2
2023-01-12T13:09:11.307Z,22.3
2023-01-12T13:14:21.358Z,22.3
2023-01-12T13:19:44.535Z,22.2
2023-01-12T13:25:15.587Z,22.2
2023-01-12T13:30:40.541Z,22.2
2023-01-12T13:35:32.626Z,22.2
2023-01-12T13:40:58.821Z,22.2
2023-01-12T13:46:09.435Z,22.2
2023-01-12T13:51:32.647Z,22.2
2023-01-12T13:56:55.975Z,22.2
2023-01-12T14:02:19.873Z,22.2
2023-01-12T14:07:46.020Z,22.2
2023-01-12T14:13:22.766Z,22.2
2023-01-12T14:19:07.948Z,22.2
2023-01-12T14:24:30.434Z,22.1
2023-01-12T14:29:53.707Z,22.1
2023-01-12T14:35:17.179Z,22.1
2023-01-12T14:40:39.255Z,22.2
2023-01-12T14:46:02.501Z,22.2
2023-01-12T14:51:25.418Z,22.2
2023-01-12T14:56:47.973Z,22.2
2023-01-12T15:02:11.801Z,22.2
2023-01-12T15:07:43.409Z,22.1
2023-01-12T15:13:05.416Z,22.1
2023-01-12T15:18:28.297Z,22.1
2023-01-12T15:23:51.250Z,22.1
2023-01-12T15:29:25.905Z,22.1
2023-01-12T15:35:02.072Z,22.1
2023-01-12T15:40:24.651Z,22.1
2023-01-12T15:45:46.751Z,22.1
2023-01-12T15:51:09.849Z,22.1
2023-01-12T15:56:32.224Z,22.1
2023-01-12T16:01:39.145Z,22.1
2023-01-12T16:08:10.107Z,22.1
2023-01-12T16:13:32.417Z,22.1
2023-01-12T16:18:39.810Z,22.1
2023-01-12T16:24:02.607Z,22.1
2023-01-12T16:29:26.793Z,22.1
2023-01-12T16:34:51.068Z,22.1
2023-01-12T16:40:13.880Z,22.1
2023-01-12T16:45:23.177Z,22.1
2023-01-12T16:50:31.023Z,22.1
2023-01-12T16:55:54.469Z,22.1
2023-01-12T17:01:21.926Z,22.1
2023-01-12T17:06:47.889Z,22.1
2023-01-12T17:11:44.065Z,22.1
2023-01-12T17:17:19.519Z,22.1
2023-01-12T17:22:30.020Z,22.1
2023-01-12T17:27:54.894Z,22.1
2023-01-12T17:32:51.325Z,22.1
2023-01-12T17:37:58.492Z,22.1
2023-01-12T17:43:22.122Z,22.1
2023-01-12T17:48:47.832Z,22.1
2023-01-12T17:53:57.549Z,22.1
2023-01-12T17:59:15.402Z,22.1
2023-01-12T18:04:40.129Z,22.1
2023-01-12T18:10:26.050Z,22.1
2023-01-12T18:15:50.275Z,22.1
2023-01-12T18:20:59.258Z,22.1
2023-01-12T18:26:24.244Z,22.1
2023-01-12T18:31:47.970Z,22.1
2023-01-12T18:37:13.815Z,22.1
2023-01-12T18:42:37.988Z,22.1
2023-01-12T18:48:04.603Z,22.1
2023-01-12T18:53:15.129Z,22.1
2023-01-12T18:58:43.860Z,22.1
2023-01-12T19:04:12.884Z,22.1
2023-01-12T19:09:42.110Z,22.1
2023-01-12T19:15:11.656Z,22.1
2023-01-12T19:20:42.503Z,22.2
2023-01-12T19:25:41.642Z,22.2
2023-01-12T19:30:58.954Z,22.2
2023-01-12T19:36:42.022Z,22.2
2023-01-12T19:42:12.984Z,22.2
2023-01-12T19:47:44.815Z,22.2
2023-01-12T19:53:16.863Z,22.3
2023-01-12T19:58:32.935Z,22.3
2023-01-12T20:03:59.395Z,22.3
2023-01-12T20:09:12.680Z,22.3
2023-01-12T20:14:41.462Z,22.3
2023-01-12T20:20:13.311Z,22.3
2023-01-12T20:25:28.068Z,22.3
2023-01-12T20:30:59.407Z,22.3
2023-01-12T20:36:26.037Z,22.3
2023-01-12T20:41:53.863Z,22.3
2023-01-12T20:47:18.879Z,22.3
2023-01-12T20:52:46.226Z,22.3
2023-01-12T20:58:10.160Z,22.3
2023-01-12T21:03:23.515Z,22.4
2023-01-12T21:08:45.391Z,22.4
2023-01-12T21:13:55.780Z,22.4
2023-01-12T21:19:19.429Z,22.4
2023-01-12T21:24:42.705Z,22.4
2023-01-12T21:30:05.856Z,22.5
2023-01-12T21:35:29.734Z,22.4
2023-01-12T21:40:37.186Z,22.4
2023-01-12T21:46:00.515Z,22.4
2023-01-12T21:51:10.207Z,22.5
2023-01-12T21:56:18.119Z,22.5
2023-01-12T22:01:25.516Z,22.5
2023-01-12T22:06:49.228Z,22.5
2023-01-12T22:11:56.260Z,22.4
2023-01-12T22:17:03.935Z,22.6
2023-01-12T22:22:26.597Z,22.6
2023-01-12T22:27:48.637Z,22.5
2023-01-12T22:33:11.635Z,22.6
2023-01-12T22:38:37.627Z,22.6
2023-01-12T22:43:44.066Z,22.6
2023-01-12T22:48:59.631Z,22.6
2023-01-12T22:54:22.817Z,22.6
2023-01-12T22:59:44.813Z,22.7
2023-01-12T23:04:52.730Z,22.6
2023-01-12T23:09:59.815Z,22.6
2023-01-12T23:15:06.847Z,22.6
2023-01-12T23:20:29.266Z,22.6
2023-01-12T23:25:51.246Z,22.7
2023-01-12T23:30:57.884Z,22.7
2023-01-12T23:36:04.044Z,22.7
2023-01-12T23:41:26.815Z,22.7
2023-01-12T23:46:47.997Z,22.8
2023-01-12T23:52:10.226Z,22.8
2023-01-12T23:57:32.582Z,22.8
